createdAt,value
2018-06-25T00:01:10.282Z,97389.05
2018-06-25T00:02:53.924Z,97382.30
2018-06-25T00:04:31.398Z,97380.59
2018-06-25T00:06:08.473Z,97381.80
2018-06-25T00:07:45.364Z,97376.38
2018-06-25T00:09:21.429Z,97378.19
2018-06-25T00:10:57.963Z,97381.02
2018-06-25T00:12:34.408Z,97379.98
2018-06-25T00:14:09.868Z,97372.50
2018-06-25T00:15:47.473Z,97372.00
2018-06-25T00:17:29.354Z,97378.25
2018-06-25T00:19:08.268Z,97379.21
2018-06-25T00:20:46.736Z,97384.53
2018-06-25T00:22:23.381Z,97381.77
2018-06-25T00:24:32.436Z,97385.14
2018-06-25T00:27:50.101Z,97369.34
2018-06-25T00:29:28.535Z,97369.34
2018-06-25T00:31:09.206Z,97374.52
2018-06-25T00:32:53.569Z,97376.63
2018-06-25T00:34:34.443Z,97383.67
2018-06-25T00:36:12.207Z,97376.32
2018-06-25T00:37:48.169Z,97366.86
2018-06-25T00:39:25.132Z,97372.54
2018-06-25T00:41:01.096Z,97372.34
2018-06-25T00:42:36.560Z,97371.74
2018-06-25T00:44:11.947Z,97368.43
2018-06-25T00:45:48.120Z,97368.70
2018-06-25T00:47:23.864Z,97370.90
2018-06-25T00:49:00.331Z,97367.12
2018-06-25T00:50:35.351Z,97363.72
2018-06-25T00:52:12.272Z,97369.36
2018-06-25T00:53:48.057Z,97367.39
2018-06-25T00:55:23.436Z,97370.47
2018-06-25T00:56:59.626Z,97372.93
2018-06-25T00:58:45.814Z,97373.87
2018-06-25T01:00:21.381Z,97371.94
2018-06-25T01:01:57.286Z,97377.59
2018-06-25T01:03:32.382Z,97377.86
2018-06-25T01:05:08.716Z,97381.70
2018-06-25T01:06:44.660Z,97380.72
2018-06-25T01:08:20.790Z,97382.63
2018-06-25T01:09:55.960Z,97383.41
2018-06-25T01:11:30.920Z,97387.12
2018-06-25T01:13:06.691Z,97375.98
2018-06-25T01:14:41.774Z,97379.50
2018-06-25T01:16:17.753Z,97382.38
2018-06-25T01:17:52.852Z,97378.45
2018-06-25T01:19:29.006Z,97382.84
2018-06-25T01:21:04.734Z,97384.08
2018-06-25T01:22:40.260Z,97388.22
2018-06-25T01:24:15.782Z,97383.47
2018-06-25T01:25:51.636Z,97386.08
2018-06-25T01:27:26.881Z,97378.27
2018-06-25T01:29:02.905Z,97362.69
2018-06-25T01:30:38.161Z,97360.48
2018-06-25T01:32:14.401Z,97372.21
2018-06-25T01:33:49.991Z,97377.69
2018-06-25T01:35:25.845Z,97373.53
2018-06-25T01:37:02.413Z,97367.89
2018-06-25T01:38:39.066Z,97374.68
2018-06-25T01:40:14.948Z,97370.02
2018-06-25T01:41:50.314Z,97367.12
2018-06-25T01:43:25.462Z,97365.69
2018-06-25T01:45:03.381Z,97373.25
2018-06-25T01:46:39.045Z,97370.20
2018-06-25T01:48:15.366Z,97368.67
2018-06-25T01:49:50.519Z,97371.24
2018-06-25T01:51:28.042Z,97365.77
2018-06-25T01:53:03.621Z,97366.73
2018-06-25T01:54:39.472Z,97366.45
2018-06-25T01:56:17.223Z,97364.21
2018-06-25T01:57:53.271Z,97365.25
2018-06-25T01:59:29.089Z,97367.30
2018-06-25T02:01:04.777Z,97369.14
2018-06-25T02:02:40.779Z,97369.03
2018-06-25T02:04:15.853Z,97370.07
2018-06-25T02:05:51.211Z,97369.91
2018-06-25T02:07:28.609Z,97375.12
2018-06-25T02:09:04.157Z,97375.09
2018-06-25T02:10:39.465Z,97378.42
2018-06-25T02:13:56.451Z,97377.92
2018-06-25T02:15:32.207Z,97383.17
2018-06-25T02:17:07.595Z,97374.02
2018-06-25T02:18:42.555Z,97374.15
2018-06-25T02:20:18.393Z,97376.39
2018-06-25T02:21:53.559Z,97376.93
2018-06-25T02:23:29.354Z,97369.21
2018-06-25T02:25:04.804Z,97359.45
2018-06-25T02:26:39.908Z,97360.05
2018-06-25T02:28:15.008Z,97362.52
2018-06-25T02:29:50.619Z,97355.73
2018-06-25T02:31:26.427Z,97355.73
2018-06-25T02:33:02.491Z,97360.78
2018-06-25T02:34:37.422Z,97362.42
2018-06-25T02:36:12.695Z,97368.23
2018-06-25T02:37:47.573Z,97360.31
2018-06-25T02:39:23.205Z,97360.72
2018-06-25T02:40:58.256Z,97361.56
2018-06-25T02:42:34.261Z,97365.27
2018-06-25T02:44:13.853Z,97366.41
2018-06-25T02:45:50.235Z,97365.09
2018-06-25T02:47:27.678Z,97367.41
2018-06-25T02:49:06.093Z,97362.63
2018-06-25T02:50:42.996Z,97358.41
2018-06-25T02:52:19.917Z,97366.30
2018-06-25T02:53:56.978Z,97360.39
2018-06-25T02:55:33.305Z,97359.45
2018-06-25T02:57:08.685Z,97367.95
2018-06-25T02:58:46.235Z,97370.41
2018-06-25T03:00:22.373Z,97370.58
2018-06-25T03:01:57.534Z,97366.20
2018-06-25T03:03:37.894Z,97368.84
2018-06-25T03:05:13.061Z,97368.68
2018-06-25T03:06:48.184Z,97368.41
2018-06-25T03:08:23.942Z,97368.34
2018-06-25T03:10:00.161Z,97365.94
2018-06-25T03:11:35.700Z,97365.50
2018-06-25T03:13:11.088Z,97366.58
2018-06-25T03:14:46.707Z,97368.17
2018-06-25T03:16:21.591Z,97371.34
2018-06-25T03:17:57.100Z,97374.75
2018-06-25T03:19:32.114Z,97371.68
2018-06-25T03:21:07.439Z,97374.25
2018-06-25T03:22:42.276Z,97365.43
2018-06-25T03:24:17.170Z,97368.44
2018-06-25T03:25:53.690Z,97370.75
2018-06-25T03:27:28.923Z,97371.95
2018-06-25T03:29:04.195Z,97369.38
2018-06-25T03:30:39.121Z,97368.88
2018-06-25T03:32:14.647Z,97370.08
2018-06-25T03:33:49.973Z,97377.10
2018-06-25T03:35:25.199Z,97377.33
2018-06-25T03:37:00.456Z,97377.10
2018-06-25T03:38:35.294Z,97373.32
2018-06-25T03:40:10.593Z,97373.92
2018-06-25T03:41:49.566Z,97376.89
2018-06-25T03:43:25.154Z,97374.08
2018-06-25T03:45:00.230Z,97382.70
2018-06-25T03:46:36.172Z,97370.75
2018-06-25T03:48:12.276Z,97380.23
2018-06-25T03:49:48.304Z,97375.69
2018-06-25T03:51:23.663Z,97376.39
2018-06-25T03:52:59.561Z,97380.17
2018-06-25T03:54:35.492Z,97377.77
2018-06-25T03:56:10.459Z,97377.33
2018-06-25T03:57:45.942Z,97381.44
2018-06-25T03:59:20.924Z,97381.03
2018-06-25T04:00:59.392Z,97384.27
2018-06-25T04:02:35.363Z,97382.97
2018-06-25T04:04:12.651Z,97388.22
2018-06-25T04:05:49.433Z,97383.07
2018-06-25T04:07:26.427Z,97388.11
2018-06-25T04:09:01.313Z,97395.30
2018-06-25T04:10:37.340Z,97395.63
2018-06-25T04:12:12.511Z,97397.80
2018-06-25T04:13:47.773Z,97406.96
2018-06-25T04:15:22.908Z,97402.85
2018-06-25T04:16:58.270Z,97397.61
2018-06-25T04:18:34.137Z,97404.33
2018-06-25T04:20:10.785Z,97402.42
2018-06-25T04:21:45.855Z,97405.53
2018-06-25T04:23:20.765Z,97402.85
2018-06-25T04:24:57.441Z,97405.16
2018-06-25T04:26:34.936Z,97411.15
2018-06-25T04:28:10.925Z,97416.36
2018-06-25T04:29:45.908Z,97414.53
2018-06-25T04:31:21.001Z,97416.06
2018-06-25T04:32:56.783Z,97415.03
2018-06-25T04:34:32.035Z,97422.65
2018-06-25T04:36:07.090Z,97421.88
2018-06-25T04:37:42.557Z,97412.89
2018-06-25T04:39:19.149Z,97420.34
2018-06-25T04:40:56.760Z,97422.75
2018-06-25T04:42:44.089Z,97423.75
2018-06-25T04:44:21.153Z,97426.83
2018-06-25T04:45:56.296Z,97436.76
2018-06-25T04:47:32.323Z,97434.88
2018-06-25T04:49:07.552Z,97432.24
2018-06-25T04:50:42.828Z,97429.94
2018-06-25T04:52:18.093Z,97436.79
2018-06-25T04:53:53.100Z,97430.88
2018-06-25T04:55:28.505Z,97427.86
2018-06-25T04:57:03.529Z,97427.33
2018-06-25T04:58:38.779Z,97433.28
2018-06-25T05:00:15.986Z,97431.64
2018-06-25T05:01:51.165Z,97432.34
2018-06-25T05:03:26.784Z,97432.04
2018-06-25T05:05:01.714Z,97435.05
2018-06-25T05:06:36.702Z,97439.59
2018-06-25T05:08:12.660Z,97433.28
2018-06-25T05:09:48.041Z,97442.23
2018-06-25T05:11:29.565Z,97450.55
2018-06-25T05:13:04.481Z,97452.09
2018-06-25T05:14:41.078Z,97448.95
2018-06-25T05:16:16.986Z,97451.92
2018-06-25T05:17:52.163Z,97452.30
2018-06-25T05:19:27.194Z,97456.23
2018-06-25T05:21:02.420Z,97457.67
2018-06-25T05:22:38.869Z,97457.94
2018-06-25T05:24:14.992Z,97457.41
2018-06-25T05:25:49.887Z,97453.41
2018-06-25T05:27:26.888Z,97455.78
2018-06-25T05:29:03.651Z,97457.19
2018-06-25T05:30:38.808Z,97459.28
2018-06-25T05:32:14.449Z,97457.91
2018-06-25T05:33:49.508Z,97461.42
2018-06-25T05:35:27.219Z,97461.03
2018-06-25T05:37:02.316Z,97460.82
2018-06-25T05:38:37.171Z,97465.41
2018-06-25T05:40:12.524Z,97461.25
2018-06-25T05:41:48.106Z,97461.20
2018-06-25T05:43:23.992Z,97462.33
2018-06-25T05:44:58.959Z,97463.70
2018-06-25T05:46:34.408Z,97466.41
2018-06-25T05:48:10.181Z,97456.91
2018-06-25T05:49:45.386Z,97466.58
2018-06-25T05:51:21.869Z,97464.20
2018-06-25T05:52:56.889Z,97469.95
2018-06-25T05:54:31.972Z,97467.55
2018-06-25T05:56:08.174Z,97465.31
2018-06-25T05:57:43.167Z,97464.88
2018-06-25T05:59:18.215Z,97462.73
2018-06-25T06:00:56.263Z,97463.83
2018-06-25T06:02:31.908Z,97466.23
2018-06-25T06:04:07.391Z,97465.03
2018-06-25T06:05:42.466Z,97466.23
2018-06-25T06:07:17.631Z,97468.31
2018-06-25T06:08:53.638Z,97471.56
2018-06-25T06:10:29.107Z,97470.41
2018-06-25T06:12:04.266Z,97470.11
2018-06-25T06:13:39.330Z,97479.18
2018-06-25T06:15:17.077Z,97475.67
2018-06-25T06:16:52.355Z,97477.91
2018-06-25T06:18:28.366Z,97473.61
2018-06-25T06:20:03.407Z,97480.23
2018-06-25T06:21:38.291Z,97484.59
2018-06-25T06:23:13.367Z,97484.95
2018-06-25T06:24:48.229Z,97484.07
2018-06-25T06:26:23.677Z,97481.41
2018-06-25T06:27:58.926Z,97484.05
2018-06-25T06:29:34.304Z,97488.80
2018-06-25T06:31:09.371Z,97490.33
2018-06-25T06:32:44.891Z,97488.71
2018-06-25T06:34:20.272Z,97494.13
2018-06-25T06:35:55.555Z,97498.81
2018-06-25T06:37:30.713Z,97504.97
2018-06-25T06:39:08.842Z,97503.07
2018-06-25T06:40:44.252Z,97494.84
2018-06-25T06:42:19.499Z,97500.41
2018-06-25T06:43:54.744Z,97498.64
2018-06-25T06:45:30.915Z,97504.80
2018-06-25T06:47:05.951Z,97505.95
2018-06-25T06:48:42.500Z,97514.68
2018-06-25T06:50:18.384Z,97510.59
2018-06-25T06:51:56.323Z,97508.58
2018-06-25T06:53:32.987Z,97511.35
2018-06-25T06:55:10.419Z,97511.95
2018-06-25T06:56:45.889Z,97511.69
2018-06-25T06:58:21.375Z,97514.68
2018-06-25T06:59:56.297Z,97510.84
2018-06-25T07:01:35.480Z,97507.84
2018-06-25T07:03:10.892Z,97503.89
2018-06-25T07:04:45.760Z,97505.43
2018-06-25T07:06:23.031Z,97510.55
2018-06-25T07:07:58.664Z,97512.36
2018-06-25T07:09:34.029Z,97508.08
2018-06-25T07:11:12.027Z,97516.37
2018-06-25T07:12:48.382Z,97513.19
2018-06-25T07:14:23.644Z,97512.52
2018-06-25T07:16:03.438Z,97513.56
2018-06-25T07:17:39.772Z,97516.80
2018-06-25T07:19:15.061Z,97511.63
2018-06-25T07:20:52.058Z,97516.89
2018-06-25T07:22:27.153Z,97516.07
2018-06-25T07:24:02.412Z,97514.77
2018-06-25T07:25:37.588Z,97513.28
2018-06-25T07:27:15.126Z,97515.91
2018-06-25T07:28:54.027Z,97514.38
2018-06-25T07:30:31.261Z,97519.83
2018-06-25T07:32:06.111Z,97512.58
2018-06-25T07:33:43.765Z,97514.30
2018-06-25T07:35:19.772Z,97519.38
2018-06-25T07:36:54.973Z,97514.40
2018-06-25T07:38:34.216Z,97508.30
2018-06-25T07:40:11.285Z,97516.80
2018-06-25T07:41:51.427Z,97514.84
2018-06-25T07:43:26.482Z,97517.63
2018-06-25T07:45:03.969Z,97518.91
2018-06-25T07:46:42.413Z,97517.86
2018-06-25T07:48:19.424Z,97516.64
2018-06-25T07:49:54.917Z,97522.38
2018-06-25T07:51:29.939Z,97516.50
2018-06-25T07:53:08.317Z,97519.55
2018-06-25T07:54:43.629Z,97517.75
2018-06-25T07:56:19.364Z,97513.55
2018-06-25T07:57:55.184Z,97513.97
2018-06-25T07:59:31.576Z,97526.42
2018-06-25T08:01:07.248Z,97533.30
2018-06-25T08:02:43.864Z,97522.81
2018-06-25T08:04:19.999Z,97527.73
2018-06-25T08:05:57.032Z,97519.31
2018-06-25T08:07:34.543Z,97523.70
2018-06-25T08:09:11.371Z,97521.46
2018-06-25T08:10:46.709Z,97529.37
2018-06-25T08:12:24.091Z,97533.55
2018-06-25T08:14:01.045Z,97535.65
2018-06-25T08:15:36.357Z,97540.28
2018-06-25T08:17:11.477Z,97544.06
2018-06-25T08:18:47.166Z,97548.59
2018-06-25T08:20:22.694Z,97554.81
2018-06-25T08:21:57.933Z,97545.34
2018-06-25T08:23:34.312Z,97556.23
2018-06-25T08:25:10.639Z,97553.36
2018-06-25T08:26:46.496Z,97553.08
2018-06-25T08:28:23.308Z,97555.34
2018-06-25T08:29:58.592Z,97560.44
2018-06-25T08:31:34.302Z,97561.17
2018-06-25T08:33:09.889Z,97561.08
2018-06-25T08:34:45.068Z,97564.89
2018-06-25T08:36:20.464Z,97575.07
2018-06-25T08:37:56.073Z,97571.34
2018-06-25T08:39:31.440Z,97577.61
2018-06-25T08:41:07.820Z,97573.03
2018-06-25T08:42:43.118Z,97579.12
2018-06-25T08:44:19.562Z,97578.67
2018-06-25T08:45:56.439Z,97576.73
2018-06-25T08:47:37.557Z,97570.25
2018-06-25T08:49:13.120Z,97566.64
2018-06-25T08:50:48.505Z,97576.28
2018-06-25T08:52:23.689Z,97574.90
2018-06-25T08:53:59.526Z,97569.97
2018-06-25T08:55:35.754Z,97567.76
2018-06-25T08:57:11.168Z,97572.20
2018-06-25T08:58:46.211Z,97561.80
2018-06-25T09:00:22.504Z,97566.40
2018-06-25T09:01:58.168Z,97569.85
2018-06-25T09:03:34.822Z,97569.83
2018-06-25T09:05:11.625Z,97571.88
2018-06-25T09:06:47.716Z,97582.87
2018-06-25T09:08:22.870Z,97578.70
2018-06-25T09:10:00.627Z,97583.69
2018-06-25T09:11:35.867Z,97569.73
2018-06-25T09:13:12.388Z,97570.61
2018-06-25T09:14:49.246Z,97570.84
2018-06-25T09:16:25.295Z,97559.83
2018-06-25T09:18:01.047Z,97567.16
2018-06-25T09:19:38.721Z,97561.92
2018-06-25T09:21:13.418Z,97564.95
2018-06-25T09:22:54.279Z,97574.01
2018-06-25T09:24:32.224Z,97567.41
2018-06-25T09:26:08.827Z,97576.00
2018-06-25T09:27:51.323Z,97585.97
2018-06-25T09:29:27.463Z,97576.38
2018-06-25T09:31:02.558Z,97574.23
2018-06-25T09:32:37.919Z,97573.31
2018-06-25T09:34:19.376Z,97576.99
2018-06-25T09:35:54.692Z,97576.39
2018-06-25T09:37:29.898Z,97576.06
2018-06-25T09:39:07.781Z,97575.30
2018-06-25T09:40:43.655Z,97578.83
2018-06-25T09:42:20.448Z,97577.89
2018-06-25T09:43:56.897Z,97580.95
2018-06-25T09:45:32.709Z,97580.05
2018-06-25T09:47:12.429Z,97587.84
2018-06-25T09:48:50.447Z,97585.39
2018-06-25T09:50:27.380Z,97586.02
2018-06-25T09:52:03.095Z,97593.37
2018-06-25T09:53:38.747Z,97594.16
2018-06-25T09:55:13.800Z,97590.30
2018-06-25T09:56:50.588Z,97589.95
2018-06-25T09:58:25.776Z,97594.67
2018-06-25T10:00:04.287Z,97580.48
2018-06-25T10:01:39.632Z,97585.35
2018-06-25T10:03:17.845Z,97581.30
2018-06-25T10:04:53.654Z,97590.42
2018-06-25T10:06:29.420Z,97592.94
2018-06-25T10:08:06.871Z,97599.34
2018-06-25T10:09:43.566Z,97602.69
2018-06-25T10:11:19.760Z,97598.09
2018-06-25T10:12:56.096Z,97608.79
2018-06-25T10:14:33.262Z,97612.53
2018-06-25T10:16:10.395Z,97610.38
2018-06-25T10:17:45.522Z,97610.69
2018-06-25T10:19:20.603Z,97601.80
2018-06-25T10:20:57.856Z,97606.38
2018-06-25T10:22:34.262Z,97605.31
2018-06-25T10:24:10.149Z,97607.48
2018-06-25T10:25:45.440Z,97601.96
2018-06-25T10:27:21.990Z,97608.55
2018-06-25T10:28:57.471Z,97612.38
2018-06-25T10:30:32.856Z,97618.49
2018-06-25T10:32:08.957Z,97603.48
2018-06-25T10:33:48.584Z,97604.27
2018-06-25T10:35:25.653Z,97609.77
2018-06-25T10:37:05.460Z,97605.02
2018-06-25T10:38:43.382Z,97609.28
2018-06-25T10:40:19.927Z,97606.03
2018-06-25T10:41:58.775Z,97613.08
2018-06-25T10:43:37.468Z,97604.45
2018-06-25T10:45:17.907Z,97601.64
2018-06-25T10:46:53.595Z,97601.59
2018-06-25T10:48:30.631Z,97609.12
2018-06-25T10:50:10.415Z,97606.91
2018-06-25T10:51:48.167Z,97606.41
2018-06-25T10:53:23.710Z,97606.30
2018-06-25T10:55:03.491Z,97600.96
2018-06-25T10:56:40.638Z,97600.98
2018-06-25T10:58:17.888Z,97608.86
2018-06-25T10:59:54.373Z,97596.39
2018-06-25T11:01:29.914Z,97594.06
2018-06-25T11:03:06.221Z,97600.34
2018-06-25T11:04:43.834Z,97600.80
2018-06-25T11:06:20.247Z,97601.42
2018-06-25T11:07:58.159Z,97603.54
2018-06-25T11:09:35.708Z,97604.86
2018-06-25T11:11:11.745Z,97608.55
2018-06-25T11:12:49.449Z,97603.57
2018-06-25T11:14:27.097Z,97601.27
2018-06-25T11:16:03.700Z,97610.78
2018-06-25T11:17:39.426Z,97607.21
2018-06-25T11:19:17.616Z,97612.74
2018-06-25T11:20:53.970Z,97612.78
2018-06-25T11:22:30.005Z,97607.94
2018-06-25T11:24:12.131Z,97608.24
2018-06-25T11:25:52.817Z,97608.63
2018-06-25T11:27:30.095Z,97606.92
2018-06-25T11:29:07.275Z,97606.02
2018-06-25T11:30:46.690Z,97607.34
2018-06-25T11:32:23.822Z,97606.92
2018-06-25T11:33:59.317Z,97610.13
2018-06-25T11:35:36.884Z,97611.11
2018-06-25T11:37:15.803Z,97615.81
2018-06-25T11:38:52.670Z,97614.84
2018-06-25T11:41:31.764Z,97612.62
2018-06-25T11:43:10.133Z,97624.77
2018-06-25T11:44:44.942Z,97618.36
2018-06-25T11:46:21.263Z,97618.34
2018-06-25T11:47:58.297Z,97626.62
2018-06-25T11:49:37.278Z,97618.81
2018-06-25T11:51:15.818Z,97622.63
2018-06-25T11:52:55.247Z,97626.77
2018-06-25T11:54:31.413Z,97633.52
2018-06-25T11:56:08.154Z,97638.55
2018-06-25T11:57:46.398Z,97632.09
2018-06-25T11:59:22.387Z,97634.56
2018-06-25T12:00:59.800Z,97633.83
2018-06-25T12:02:37.962Z,97636.74
2018-06-25T12:04:14.537Z,97633.82
2018-06-25T12:05:49.812Z,97641.66
2018-06-25T12:07:27.818Z,97637.37
2018-06-25T12:09:04.740Z,97634.16
2018-06-25T12:10:41.767Z,97633.83
2018-06-25T12:12:18.765Z,97635.52
2018-06-25T12:13:54.479Z,97632.44
2018-06-25T12:15:32.909Z,97642.71
2018-06-25T12:17:11.640Z,97639.32
2018-06-25T12:18:48.350Z,97635.98
2018-06-25T12:20:25.701Z,97626.60
2018-06-25T12:22:02.296Z,97632.45
2018-06-25T12:25:14.980Z,97634.12
2018-06-25T12:26:52.617Z,97639.64
2018-06-25T12:28:28.589Z,97634.14
2018-06-25T12:30:10.131Z,97633.05
2018-06-25T12:31:46.454Z,97635.53
2018-06-25T12:33:21.304Z,97624.44
2018-06-25T12:34:58.742Z,97628.88
2018-06-25T12:36:33.879Z,97629.67
2018-06-25T12:38:11.795Z,97626.91
2018-06-25T12:39:50.257Z,97626.39
2018-06-25T12:41:33.027Z,97639.05
2018-06-25T12:43:11.050Z,97641.95
2018-06-25T12:44:46.576Z,97639.77
2018-06-25T12:46:23.345Z,97639.28
2018-06-25T12:48:00.259Z,97641.30
2018-06-25T12:49:35.490Z,97637.34
2018-06-25T12:51:14.625Z,97640.31
2018-06-25T12:52:50.636Z,97633.41
2018-06-25T12:54:27.500Z,97629.63
2018-06-25T12:56:04.006Z,97632.83
2018-06-25T12:57:40.025Z,97632.67
2018-06-25T12:59:15.325Z,97629.54
2018-06-25T13:00:52.270Z,97633.24
2018-06-25T13:02:28.819Z,97637.41
2018-06-25T13:04:04.191Z,97629.11
2018-06-25T13:05:40.124Z,97627.77
2018-06-25T13:07:16.204Z,97626.56
2018-06-25T13:08:53.612Z,97624.10
2018-06-25T13:10:31.337Z,97619.06
2018-06-25T13:12:21.312Z,97631.60
2018-06-25T13:13:58.845Z,97632.54
2018-06-25T13:15:38.821Z,97634.85
2018-06-25T13:17:16.244Z,97630.34
2018-06-25T13:18:53.867Z,97630.65
2018-06-25T13:20:29.329Z,97633.50
2018-06-25T13:22:06.900Z,97631.58
2018-06-25T13:23:41.988Z,97627.96
2018-06-25T13:25:19.600Z,97625.52
2018-06-25T13:26:54.727Z,97626.67
2018-06-25T13:28:33.211Z,97624.16
2018-06-25T13:30:17.575Z,97630.77
2018-06-25T13:32:23.084Z,97623.91
2018-06-25T13:34:02.698Z,97617.02
2018-06-25T13:35:39.159Z,97632.56
2018-06-25T13:37:15.247Z,97616.70
2018-06-25T13:38:52.623Z,97620.16
2018-06-25T13:40:28.841Z,97621.53
2018-06-25T13:42:07.815Z,97621.63
2018-06-25T13:43:44.110Z,97616.64
2018-06-25T13:45:19.832Z,97615.17
2018-06-25T13:46:56.339Z,97618.53
2018-06-25T13:48:33.369Z,97609.48
2018-06-25T13:50:11.023Z,97613.70
2018-06-25T13:51:49.403Z,97609.18
2018-06-25T13:53:29.568Z,97615.45
2018-06-25T13:55:07.984Z,97615.45
2018-06-25T13:57:06.179Z,97609.70
2018-06-25T13:58:57.298Z,97617.61
2018-06-25T14:01:05.858Z,97615.94
2018-06-25T14:02:47.485Z,97623.33
2018-06-25T14:04:33.014Z,97620.22
2018-06-25T14:06:13.152Z,97620.52
2018-06-25T14:07:50.075Z,97617.95
2018-06-25T14:09:25.910Z,97618.98
2018-06-25T14:11:02.577Z,97621.56
2018-06-25T14:12:39.366Z,97620.78
2018-06-25T14:14:19.614Z,97610.14
2018-06-25T14:15:56.127Z,97612.34
2018-06-25T14:17:34.966Z,97608.16
2018-06-25T14:19:16.000Z,97611.84
2018-06-25T14:21:00.684Z,97614.09
2018-06-25T14:22:41.594Z,97610.91
2018-06-25T14:24:22.111Z,97607.52
2018-06-25T14:26:04.948Z,97608.65
2018-06-25T14:27:46.344Z,97608.23
2018-06-25T14:29:28.000Z,97605.80
2018-06-25T14:31:12.831Z,97599.48
2018-06-25T14:32:53.090Z,97595.89
2018-06-25T14:34:28.948Z,97593.39
2018-06-25T14:36:06.589Z,97600.23
2018-06-25T14:37:43.651Z,97602.50
2018-06-25T14:39:19.864Z,97598.70
2018-06-25T14:40:56.292Z,97600.86
2018-06-25T14:42:33.651Z,97601.84
2018-06-25T14:44:11.749Z,97600.22
2018-06-25T14:45:51.930Z,97605.30
2018-06-25T14:47:28.744Z,97600.95
2018-06-25T14:49:05.719Z,97604.22
2018-06-25T14:50:43.155Z,97597.55
2018-06-25T14:52:26.824Z,97606.27
2018-06-25T14:54:06.039Z,97609.13
2018-06-25T14:55:48.016Z,97605.11
2018-06-25T14:57:25.179Z,97610.75
2018-06-25T14:59:03.200Z,97607.94
2018-06-25T15:00:41.051Z,97605.45
2018-06-25T15:02:27.976Z,97604.59
2018-06-25T15:04:07.358Z,97607.15
2018-06-25T15:05:56.847Z,97600.98
2018-06-25T15:07:41.232Z,97608.73
2018-06-25T15:09:19.298Z,97603.14
2018-06-25T15:11:09.619Z,97612.09
2018-06-25T15:12:49.757Z,97609.80
2018-06-25T15:14:28.881Z,97607.34
2018-06-25T15:16:05.264Z,97610.89
2018-06-25T15:17:40.433Z,97601.06
2018-06-25T15:19:23.749Z,97602.66
2018-06-25T15:20:59.371Z,97594.58
2018-06-25T15:22:34.600Z,97594.00
2018-06-25T15:24:13.079Z,97591.11
2018-06-25T15:25:48.905Z,97598.36
2018-06-25T15:27:24.856Z,97591.32
2018-06-25T15:29:01.823Z,97589.75
2018-06-25T15:30:39.080Z,97593.61
2018-06-25T15:32:15.969Z,97590.14
2018-06-25T15:33:55.386Z,97594.41
2018-06-25T15:35:32.485Z,97588.23
2018-06-25T15:37:09.993Z,97596.84
2018-06-25T15:38:46.469Z,97593.48
2018-06-25T15:40:21.688Z,97590.00
2018-06-25T15:41:56.929Z,97588.95
2018-06-25T15:43:33.688Z,97584.52
2018-06-25T15:45:14.248Z,97584.98
2018-06-25T15:46:50.376Z,97590.22
2018-06-25T15:48:25.934Z,97592.98
2018-06-25T15:50:03.595Z,97594.41
2018-06-25T15:51:39.789Z,97584.50
2018-06-25T15:53:16.773Z,97583.53
2018-06-25T15:54:51.831Z,97587.70
2018-06-25T15:56:27.570Z,97579.86
2018-06-25T15:58:03.059Z,97584.08
2018-06-25T15:59:39.104Z,97577.98
2018-06-25T16:01:14.272Z,97576.36
2018-06-25T16:02:49.834Z,97569.83
2018-06-25T16:04:26.640Z,97571.98
2018-06-25T16:06:02.623Z,97571.95
2018-06-25T16:07:37.828Z,97576.14
2018-06-25T16:09:17.562Z,97582.20
2018-06-25T16:10:53.511Z,97579.00
2018-06-25T16:12:30.119Z,97580.72
2018-06-25T16:14:06.500Z,97578.97
2018-06-25T16:15:42.205Z,97574.25
2018-06-25T16:17:17.367Z,97572.37
2018-06-25T16:18:54.909Z,97567.73
2018-06-25T16:20:31.829Z,97563.44
2018-06-25T16:22:08.991Z,97561.17
2018-06-25T16:23:46.897Z,97563.27
2018-06-25T16:25:26.385Z,97561.45
2018-06-25T16:27:05.376Z,97563.24
2018-06-25T16:28:46.449Z,97559.45
2018-06-25T16:30:24.233Z,97567.89
2018-06-25T16:32:12.774Z,97566.75
2018-06-25T16:33:57.719Z,97562.75
2018-06-25T16:35:37.353Z,97572.63
2018-06-25T16:37:18.173Z,97575.73
2018-06-25T16:38:54.258Z,97572.61
2018-06-25T16:40:35.995Z,97568.02
2018-06-25T16:42:14.288Z,97577.38
2018-06-25T16:43:49.548Z,97572.98
2018-06-25T16:45:30.096Z,97569.64
2018-06-25T16:47:06.897Z,97572.06
2018-06-25T16:48:43.769Z,97568.52
2018-06-25T16:50:19.272Z,97575.11
2018-06-25T16:51:56.617Z,97569.59
2018-06-25T16:53:37.833Z,97566.06
2018-06-25T16:55:14.566Z,97572.06
2018-06-25T16:57:01.804Z,97576.50
2018-06-25T16:58:37.302Z,97574.63
2018-06-25T17:00:17.969Z,97574.00
2018-06-25T17:01:56.011Z,97570.49
2018-06-25T17:03:34.074Z,97570.36
2018-06-25T17:05:10.226Z,97561.83
2018-06-25T17:06:53.206Z,97570.00
2018-06-25T17:08:30.124Z,97563.63
2018-06-25T17:10:07.348Z,97567.77
2018-06-25T17:11:44.870Z,97571.75
2018-06-25T17:13:20.343Z,97568.53
2018-06-25T17:14:57.334Z,97564.98
2018-06-25T17:16:38.477Z,97569.48
2018-06-25T17:18:16.875Z,97561.55
2018-06-25T17:19:52.514Z,97564.09
2018-06-25T17:21:34.918Z,97565.26
2018-06-25T17:23:11.272Z,97558.99
2018-06-25T17:25:00.560Z,97555.59
2018-06-25T17:26:38.131Z,97559.16
2018-06-25T17:28:28.671Z,97550.86
2018-06-25T17:30:16.102Z,97555.41
2018-06-25T17:33:49.124Z,97561.04
2018-06-25T17:35:40.703Z,97554.89
2018-06-25T17:37:22.953Z,97558.19
2018-06-25T17:39:03.039Z,97563.30
2018-06-25T17:40:41.535Z,97555.41
2018-06-25T17:42:20.144Z,97550.67
2018-06-25T17:43:59.182Z,97553.02
2018-06-25T17:45:45.342Z,97553.27
2018-06-25T17:49:13.753Z,97560.05
2018-06-25T17:50:53.317Z,97551.44
2018-06-25T17:52:30.899Z,97548.66
2018-06-25T17:54:11.321Z,97552.52
2018-06-25T17:55:47.534Z,97560.70
2018-06-25T17:57:25.295Z,97558.38
2018-06-25T17:59:01.274Z,97557.48
2018-06-25T18:00:47.985Z,97553.28
2018-06-25T18:02:27.188Z,97550.86
2018-06-25T18:04:11.935Z,97555.00
2018-06-25T18:14:55.688Z,97553.64
2018-06-25T18:16:34.191Z,97553.89
2018-06-25T18:18:24.830Z,97555.44
2018-06-25T18:20:10.375Z,97549.73
2018-06-25T18:21:51.351Z,97550.81
2018-06-25T18:23:39.929Z,97548.56
2018-06-25T18:25:35.549Z,97546.60
2018-06-25T18:27:16.649Z,97548.62
2018-06-25T18:28:56.454Z,97552.16
2018-06-25T18:30:52.197Z,97551.26
2018-06-25T18:32:32.832Z,97558.59
2018-06-25T18:34:16.588Z,97553.09
2018-06-25T18:35:57.796Z,97552.52
2018-06-25T18:37:34.706Z,97550.72
2018-06-25T18:39:16.508Z,97558.86
2018-06-25T18:40:56.209Z,97558.04
2018-06-25T18:48:08.418Z,97563.13
2018-06-25T18:49:46.744Z,97566.33
2018-06-25T18:51:24.381Z,97564.52
2018-06-25T18:53:06.917Z,97563.53
2018-06-25T18:54:43.258Z,97564.63
2018-06-25T18:56:21.598Z,97565.44
2018-06-25T18:57:57.445Z,97561.63
2018-06-25T18:59:45.590Z,97559.28
2018-06-25T19:01:23.785Z,97565.86
2018-06-25T19:03:03.531Z,97566.33
2018-06-25T19:04:48.476Z,97567.70
2018-06-25T19:06:32.738Z,97563.42
2018-06-25T19:08:12.494Z,97566.69
2018-06-25T19:09:58.724Z,97568.70
2018-06-25T19:11:39.637Z,97570.09
2018-06-25T19:13:23.780Z,97570.45
2018-06-25T19:15:10.498Z,97566.16
2018-06-25T19:18:30.330Z,97570.16
2018-06-25T19:20:07.402Z,97572.75
2018-06-25T19:21:49.182Z,97566.02
2018-06-25T19:23:26.886Z,97573.52
2018-06-25T19:25:18.708Z,97573.37
2018-06-25T19:26:57.644Z,97573.12
2018-06-25T19:28:36.352Z,97566.77
2018-06-25T19:30:13.438Z,97581.74
2018-06-25T19:31:52.586Z,97580.58